createdAt,value
2022-09-12T00:00:42.611Z,11.69
2022-09-12T00:03:09.155Z,11.64
2022-09-12T00:05:44.888Z,11.58
2022-09-12T00:08:12.840Z,11.58
2022-09-12T00:10:41.861Z,11.61
2022-09-12T00:13:08.665Z,11.57
2022-09-12T00:15:42.858Z,11.58
2022-09-12T00:18:15.101Z,11.57
2022-09-12T00:20:43.897Z,11.55
2022-09-12T00:23:10.763Z,11.45
2022-09-12T00:25:55.391Z,11.55
2022-09-12T00:28:21.894Z,11.48
2022-09-12T00:30:49.282Z,11.43
2022-09-12T00:33:17.434Z,11.42
2022-09-12T00:35:49.748Z,11.41
2022-09-12T00:38:17.392Z,11.43
2022-09-12T00:40:44.946Z,11.42
2022-09-12T00:43:29.830Z,11.31
2022-09-12T00:46:05.502Z,11.31
2022-09-12T00:48:37.117Z,11.21
2022-09-12T00:51:03.932Z,11.21
2022-09-12T00:53:30.966Z,11.20
2022-09-12T00:55:58.207Z,11.14
2022-09-12T00:58:54.894Z,11.10
2022-09-12T01:01:21.692Z,10.97
2022-09-12T01:03:49.705Z,10.94
2022-09-12T01:06:24.917Z,10.95
2022-09-12T01:08:54.963Z,10.85
2022-09-12T01:11:21.927Z,10.86
2022-09-12T01:13:49.670Z,10.80
2022-09-12T01:16:16.481Z,10.78
2022-09-12T01:19:13.106Z,10.78
2022-09-12T01:21:54.380Z,10.65
2022-09-12T01:24:34.969Z,10.64
2022-09-12T01:27:13.541Z,10.56
2022-09-12T01:30:04.594Z,10.53
2022-09-12T01:32:52.878Z,10.53
2022-09-12T01:35:22.888Z,10.47
2022-09-12T01:38:37.219Z,10.44
2022-09-12T01:41:28.703Z,10.33
2022-09-12T01:44:04.219Z,10.32
2022-09-12T01:46:49.255Z,10.33
2022-09-12T01:49:26.984Z,10.27
2022-09-12T01:51:57.578Z,10.22
2022-09-12T01:54:37.429Z,10.20
2022-09-12T01:57:12.814Z,10.14
2022-09-12T01:59:45.476Z,10.12
2022-09-12T02:02:28.067Z,10.06
2022-09-12T02:05:08.938Z,10.05
2022-09-12T02:07:53.702Z,9.98
2022-09-12T02:10:32.640Z,9.89
2022-09-12T02:13:12.132Z,9.85
2022-09-12T02:15:48.446Z,9.81
2022-09-12T02:18:18.310Z,9.69
2022-09-12T02:20:49.441Z,9.64
2022-09-12T02:23:23.468Z,9.60
2022-09-12T02:25:54.181Z,9.56
2022-09-12T02:28:29.474Z,9.48
2022-09-12T02:31:14.676Z,9.47
2022-09-12T02:33:54.391Z,9.40
2022-09-12T02:36:40.073Z,9.32
2022-09-12T02:39:06.712Z,9.33
2022-09-12T02:41:33.434Z,9.24
2022-09-12T02:44:00.178Z,9.25
2022-09-12T02:46:33.731Z,9.13
2022-09-12T02:49:00.326Z,9.07
2022-09-12T02:51:27.188Z,9.03
2022-09-12T02:53:56.815Z,9.05
2022-09-12T02:56:28.553Z,8.96
2022-09-12T02:58:59.420Z,8.91
2022-09-12T03:01:43.973Z,8.95
2022-09-12T03:04:40.076Z,8.86
2022-09-12T03:07:26.900Z,8.88
2022-09-12T03:10:02.384Z,8.76
2022-09-12T03:12:35.018Z,8.68
2022-09-12T03:15:40.168Z,8.65
2022-09-12T03:18:24.802Z,8.68
2022-09-12T03:21:00.733Z,8.56
2022-09-12T03:24:24.495Z,8.56
2022-09-12T03:26:58.715Z,8.53
2022-09-12T03:29:27.410Z,8.41
2022-09-12T03:31:56.423Z,8.49
2022-09-12T03:34:24.624Z,8.40
2022-09-12T03:36:51.605Z,8.37
2022-09-12T03:39:18.409Z,8.34
2022-09-12T03:41:44.897Z,8.27
2022-09-12T03:44:11.384Z,8.18
2022-09-12T03:46:37.909Z,8.15
2022-09-12T03:49:04.681Z,8.22
2022-09-12T03:51:31.189Z,8.21
2022-09-12T03:53:57.653Z,8.30
2022-09-12T03:56:24.318Z,8.28
2022-09-12T03:58:50.877Z,8.42
2022-09-12T04:01:19.540Z,8.41
2022-09-12T04:03:48.471Z,8.35
2022-09-12T04:06:16.931Z,8.27
2022-09-12T04:08:44.776Z,8.15
2022-09-12T04:11:14.200Z,8.19
2022-09-12T04:13:42.501Z,8.02
2022-09-12T04:16:10.536Z,7.94
2022-09-12T04:18:37.730Z,8.02
2022-09-12T04:21:13.392Z,7.96
2022-09-12T04:23:40.532Z,7.89
2022-09-12T04:26:07.862Z,7.90
2022-09-12T04:28:36.420Z,7.90
2022-09-12T04:31:06.887Z,7.89
2022-09-12T04:33:37.247Z,7.71
2022-09-12T04:36:09.288Z,7.65
2022-09-12T04:38:36.810Z,7.66
2022-09-12T04:41:12.648Z,7.72
2022-09-12T04:43:39.195Z,7.78
2022-09-12T04:46:07.965Z,7.81
2022-09-12T04:48:34.823Z,7.77
2022-09-12T04:51:14.887Z,7.78
2022-09-12T04:53:42.980Z,7.78
2022-09-12T04:56:11.554Z,7.84
2022-09-12T04:58:38.621Z,7.85
2022-09-12T05:01:19.280Z,7.80
2022-09-12T05:03:47.285Z,7.89
2022-09-12T05:06:19.802Z,8.14
2022-09-12T05:08:46.976Z,8.28
2022-09-12T05:11:16.116Z,8.62
2022-09-12T05:13:42.862Z,9.29
2022-09-12T05:16:11.795Z,10.03
2022-09-12T05:18:38.851Z,11.08
2022-09-12T05:21:08.030Z,11.75
2022-09-12T05:23:36.361Z,12.67
2022-09-12T05:26:04.632Z,13.60
2022-09-12T05:28:35.589Z,14.76
2022-09-12T05:31:13.870Z,15.47
2022-09-12T05:33:42.574Z,14.97
2022-09-12T05:36:17.797Z,15.61
2022-09-12T05:38:45.336Z,16.07
2022-09-12T05:41:24.652Z,16.83
2022-09-12T05:44:00.807Z,17.75
2022-09-12T05:46:29.856Z,17.67
2022-09-12T05:48:58.335Z,18.32
2022-09-12T05:51:27.280Z,17.79
2022-09-12T05:53:59.632Z,17.97
2022-09-12T05:56:28.452Z,18.93
2022-09-12T05:58:59.833Z,19.01
2022-09-12T06:01:28.162Z,19.27
2022-09-12T06:03:57.749Z,19.77
2022-09-12T06:06:25.294Z,20.06
2022-09-12T06:08:54.717Z,20.35
2022-09-12T06:11:23.968Z,20.70
2022-09-12T06:13:53.168Z,20.87
2022-09-12T06:16:22.107Z,21.29
2022-09-12T06:18:56.551Z,22.35
2022-09-12T06:21:24.672Z,22.48
2022-09-12T06:23:51.330Z,22.18
2022-09-12T06:26:21.641Z,22.39
2022-09-12T06:28:48.364Z,23.10
2022-09-12T06:31:20.588Z,23.13
2022-09-12T06:33:54.463Z,23.89
2022-09-12T06:36:30.095Z,23.57
2022-09-12T06:39:02.342Z,24.35
2022-09-12T06:41:31.107Z,24.75
2022-09-12T06:43:58.249Z,26.29
2022-09-12T06:46:25.637Z,26.38
2022-09-12T06:48:52.479Z,26.48
2022-09-12T06:51:20.315Z,26.55
2022-09-12T06:53:50.824Z,26.13
2022-09-12T06:59:00.790Z,26.25
2022-09-12T07:01:30.992Z,27.30
2022-09-12T07:04:00.332Z,27.48
2022-09-12T07:06:32.281Z,27.17
2022-09-12T07:09:01.007Z,27.94
2022-09-12T07:11:36.483Z,27.17
2022-09-12T07:14:04.972Z,27.27
2022-09-12T07:16:32.314Z,27.67
2022-09-12T07:19:03.901Z,27.78
2022-09-12T07:21:30.534Z,27.64
2022-09-12T07:23:59.828Z,28.49
2022-09-12T07:26:29.977Z,28.80
2022-09-12T07:29:12.789Z,29.20
2022-09-12T07:31:51.576Z,29.01
2022-09-12T07:34:18.046Z,29.61
2022-09-12T07:36:44.648Z,29.09
2022-09-12T07:39:11.141Z,30.06
2022-09-12T07:41:38.023Z,29.96
2022-09-12T07:44:07.255Z,28.85
2022-09-12T07:46:34.381Z,28.89
2022-09-12T07:49:01.530Z,29.77
2022-09-12T07:51:30.549Z,29.44
2022-09-12T07:53:57.625Z,29.81
2022-09-12T07:56:29.438Z,29.99
2022-09-12T07:58:57.656Z,30.40
2022-09-12T08:01:24.409Z,30.45
2022-09-12T08:03:55.067Z,31.07
2022-09-12T08:06:24.597Z,30.69
2022-09-12T08:08:52.269Z,31.65
2022-09-12T08:14:58.407Z,30.87
2022-09-12T08:17:24.897Z,30.62
2022-09-12T08:19:51.435Z,31.68
2022-09-12T08:22:19.001Z,30.03
2022-09-12T08:24:45.528Z,34.45
2022-09-12T08:27:12.441Z,33.91
2022-09-12T08:29:38.950Z,32.01
2022-09-12T08:32:05.656Z,32.75
2022-09-12T08:34:32.437Z,35.54
2022-09-12T08:36:59.057Z,32.74
2022-09-12T08:39:25.716Z,33.65
2022-09-12T08:42:04.709Z,32.20
2022-09-12T08:44:56.439Z,32.03
2022-09-12T08:47:35.591Z,32.76
2022-09-12T08:50:08.254Z,31.58
2022-09-12T08:52:34.710Z,32.33
2022-09-12T08:55:02.826Z,34.38
2022-09-12T08:57:29.573Z,35.48
2022-09-12T08:59:56.575Z,32.77
2022-09-12T09:02:40.316Z,33.50
2022-09-12T09:05:24.577Z,33.03
2022-09-12T09:08:03.224Z,32.04
2022-09-12T09:10:53.680Z,33.27
2022-09-12T09:14:16.813Z,31.32
2022-09-12T09:16:46.610Z,28.39
2022-09-12T09:19:21.539Z,28.38
2022-09-12T09:21:57.700Z,30.89
2022-09-12T09:24:52.346Z,34.22
2022-09-12T09:27:40.424Z,32.61
2022-09-12T09:30:12.924Z,33.80
2022-09-12T09:32:41.481Z,30.33
2022-09-12T09:35:40.467Z,26.82
2022-09-12T09:38:34.141Z,27.99
2022-09-12T09:41:39.755Z,29.85
2022-09-12T09:46:38.212Z,26.39
2022-09-12T09:49:07.047Z,26.24
2022-09-12T09:51:39.600Z,25.98
2022-09-12T09:54:15.067Z,28.49
2022-09-12T09:56:42.742Z,29.63
2022-09-12T09:59:16.443Z,28.06
2022-09-12T10:01:52.401Z,26.87
2022-09-12T10:04:23.967Z,25.72
2022-09-12T10:07:02.184Z,27.16
2022-09-12T10:09:33.358Z,27.94
2022-09-12T10:12:19.349Z,26.26
2022-09-12T10:14:58.058Z,24.17
2022-09-12T10:17:33.757Z,25.21
2022-09-12T10:20:20.399Z,27.56
2022-09-12T10:22:49.240Z,30.51
2022-09-12T10:25:19.314Z,31.16
2022-09-12T10:36:04.433Z,32.47
2022-09-12T10:39:52.121Z,32.89
2022-09-12T10:43:08.490Z,33.53
2022-09-12T10:57:35.082Z,34.87
2022-09-12T11:00:30.326Z,30.87
2022-09-12T11:03:11.044Z,31.61
2022-09-12T11:09:35.899Z,31.29
2022-09-12T11:12:36.185Z,32.28
2022-09-12T11:15:29.529Z,31.96
2022-09-12T11:18:27.218Z,33.93
2022-09-12T11:21:12.034Z,33.17
2022-09-12T11:24:04.295Z,32.56
2022-09-12T11:26:52.706Z,32.63
2022-09-12T11:29:38.033Z,31.89
2022-09-12T11:32:22.018Z,33.78
2022-09-12T11:35:13.922Z,32.67
2022-09-12T11:37:46.233Z,32.14
2022-09-12T11:40:50.843Z,30.20
2022-09-12T11:43:29.091Z,30.85
2022-09-12T11:46:01.496Z,29.53
2022-09-12T11:48:40.263Z,30.77
2022-09-12T11:51:16.020Z,31.63
2022-09-12T11:53:44.582Z,31.89
2022-09-12T11:56:18.623Z,31.14
2022-09-12T11:58:51.826Z,31.74
2022-09-12T12:01:56.033Z,30.69
2022-09-12T12:04:30.096Z,31.07
2022-09-12T12:07:04.666Z,31.71
2022-09-12T12:09:31.544Z,31.78
2022-09-12T12:12:03.431Z,32.30
2022-09-12T12:14:45.446Z,31.24
2022-09-12T12:17:47.941Z,31.10
2022-09-12T12:20:20.262Z,31.43
2022-09-12T12:22:54.596Z,32.46
2022-09-12T12:25:37.120Z,31.95
2022-09-12T12:28:06.604Z,31.56
2022-09-12T12:35:04.630Z,30.03
2022-09-12T12:46:44.298Z,28.96
2022-09-12T12:49:26.883Z,30.36
2022-09-12T12:51:53.338Z,29.54
2022-09-12T12:54:49.928Z,28.87
2022-09-12T12:57:22.663Z,31.19
2022-09-12T13:00:08.729Z,29.12
2022-09-12T13:02:41.726Z,28.30
2022-09-12T13:05:24.229Z,26.94
2022-09-12T13:08:05.419Z,27.71
2022-09-12T13:10:32.084Z,26.99
2022-09-12T13:13:03.882Z,27.69
2022-09-12T13:15:36.473Z,27.89
2022-09-12T13:18:26.305Z,27.41
2022-09-12T13:21:14.424Z,27.86
2022-09-12T13:23:41.733Z,28.22
2022-09-12T13:26:14.558Z,26.89
2022-09-12T13:28:41.092Z,27.68
2022-09-12T13:31:14.647Z,28.24
2022-09-12T13:34:01.493Z,27.69
2022-09-12T13:37:21.589Z,27.68
2022-09-12T13:39:55.595Z,27.62
2022-09-12T13:42:40.956Z,26.55
2022-09-12T13:45:19.886Z,26.06
2022-09-12T13:47:51.354Z,25.90
2022-09-12T13:50:26.327Z,26.39
2022-09-12T13:53:05.983Z,26.13
2022-09-12T13:55:37.055Z,26.16
2022-09-12T13:58:04.947Z,25.95
2022-09-12T14:00:34.923Z,25.64
2022-09-12T14:03:21.029Z,24.79
2022-09-12T14:05:56.948Z,24.30
2022-09-12T14:08:23.970Z,24.17
2022-09-12T14:10:51.320Z,24.10
2022-09-12T14:13:25.157Z,24.81
2022-09-12T14:16:00.744Z,24.71
2022-09-12T14:18:32.094Z,24.63
2022-09-12T14:21:26.013Z,24.48
2022-09-12T14:23:55.406Z,24.47
2022-09-12T14:26:23.533Z,24.21
2022-09-12T14:28:51.732Z,24.00
2022-09-12T14:31:31.090Z,23.70
2022-09-12T14:34:12.396Z,23.42
2022-09-12T14:36:50.954Z,23.68
2022-09-12T14:39:29.974Z,23.73
2022-09-12T14:42:13.127Z,23.82
2022-09-12T14:44:42.901Z,24.00
2022-09-12T14:47:22.884Z,23.80
2022-09-12T14:49:53.480Z,23.69
2022-09-12T14:52:32.388Z,23.46
2022-09-12T14:55:29.517Z,23.22
2022-09-12T14:58:18.367Z,23.17
2022-09-12T15:01:02.387Z,22.52
2022-09-12T15:03:44.891Z,22.60
2022-09-12T15:06:31.472Z,22.64
2022-09-12T15:09:11.910Z,22.91
2022-09-12T15:11:38.569Z,22.72
2022-09-12T15:14:15.459Z,22.96
2022-09-12T15:16:42.051Z,22.71
2022-09-12T15:19:08.501Z,22.51
2022-09-12T15:21:35.006Z,22.73
2022-09-12T15:24:01.619Z,22.40
2022-09-12T15:26:30.567Z,22.44
2022-09-12T15:28:57.646Z,22.38
2022-09-12T15:31:24.141Z,22.28
2022-09-12T15:33:50.973Z,22.22
2022-09-12T15:36:20.183Z,22.09
2022-09-12T15:38:47.867Z,22.20
2022-09-12T15:41:20.357Z,22.17
2022-09-12T15:43:47.487Z,21.87
2022-09-12T15:46:16.109Z,21.90
2022-09-12T15:48:43.457Z,21.49
2022-09-12T15:51:15.477Z,21.41
2022-09-12T15:53:42.505Z,21.55
2022-09-12T15:56:09.016Z,21.36
2022-09-12T15:58:36.043Z,21.27
2022-09-12T16:01:02.603Z,21.19
2022-09-12T16:03:30.092Z,21.22
2022-09-12T16:06:01.749Z,21.22
2022-09-12T16:08:29.603Z,21.20
2022-09-12T16:10:57.421Z,20.97
2022-09-12T16:13:24.393Z,20.81
2022-09-12T16:15:51.364Z,20.68
2022-09-12T16:18:17.793Z,20.56
2022-09-12T16:20:44.167Z,20.56
2022-09-12T16:23:11.513Z,20.65
2022-09-12T16:25:38.722Z,20.46
2022-09-12T16:28:08.414Z,20.41
2022-09-12T16:30:35.566Z,20.39
2022-09-12T16:33:02.296Z,20.27
2022-09-12T16:35:28.880Z,20.10
2022-09-12T16:37:55.303Z,20.02
2022-09-12T16:40:21.738Z,19.96
2022-09-12T16:42:48.189Z,19.97
2022-09-12T16:45:14.649Z,19.86
2022-09-12T16:47:41.105Z,19.84
2022-09-12T16:50:07.761Z,19.74
2022-09-12T16:52:34.531Z,19.73
2022-09-12T16:55:02.470Z,19.75
2022-09-12T16:57:28.867Z,19.69
2022-09-12T16:59:55.253Z,19.62
2022-09-12T17:02:21.699Z,19.55
2022-09-12T17:04:48.848Z,19.37
2022-09-12T17:07:15.266Z,19.41
2022-09-12T17:09:45.100Z,19.27
2022-09-12T17:12:14.079Z,19.20
2022-09-12T17:14:40.447Z,18.96
2022-09-12T17:17:07.265Z,19.00
2022-09-12T17:19:33.680Z,18.85
2022-09-12T17:22:00.061Z,18.71
2022-09-12T17:24:26.773Z,18.60
2022-09-12T17:26:53.691Z,18.64
2022-09-12T17:29:20.306Z,18.67
2022-09-12T17:31:46.713Z,18.54
2022-09-12T17:34:14.650Z,18.27
2022-09-12T17:36:44.219Z,18.02
2022-09-12T17:39:11.601Z,17.84
2022-09-12T17:41:38.018Z,17.74
2022-09-12T17:44:04.937Z,17.62
2022-09-12T17:46:40.804Z,17.51
2022-09-12T17:49:10.711Z,17.26
2022-09-12T17:51:37.147Z,17.12
2022-09-12T17:54:08.359Z,17.02
2022-09-12T17:56:35.753Z,16.82
2022-09-12T17:59:02.502Z,16.66
2022-09-12T18:01:47.916Z,16.51
2022-09-12T18:04:14.894Z,16.38
2022-09-12T18:06:47.792Z,16.28
2022-09-12T18:09:15.024Z,16.17
2022-09-12T18:11:41.415Z,15.99
2022-09-12T18:14:10.441Z,15.87
2022-09-12T18:16:40.170Z,15.72
2022-09-12T18:19:06.645Z,15.58
2022-09-12T18:21:34.195Z,15.44
2022-09-12T18:24:00.792Z,15.40
2022-09-12T18:26:29.070Z,15.39
2022-09-12T18:28:56.091Z,15.22
2022-09-12T18:31:24.382Z,15.09
2022-09-12T18:33:51.742Z,14.96
2022-09-12T18:36:19.118Z,14.85
2022-09-12T18:38:45.907Z,14.79
2022-09-12T18:41:21.189Z,14.66
2022-09-12T18:43:47.986Z,14.58
2022-09-12T18:46:17.384Z,14.49
2022-09-12T18:48:45.134Z,14.33
2022-09-12T18:51:16.904Z,14.29
2022-09-12T18:53:47.874Z,14.28
2022-09-12T18:56:14.651Z,14.20
2022-09-12T18:58:42.918Z,14.02
2022-09-12T19:01:13.807Z,13.88
2022-09-12T19:03:40.733Z,13.80
2022-09-12T19:06:27.808Z,13.75
2022-09-12T19:08:55.571Z,13.67
2022-09-12T19:11:23.496Z,13.63
2022-09-12T19:13:52.302Z,13.60
2022-09-12T19:16:21.701Z,13.62
2022-09-12T19:18:49.863Z,13.55
2022-09-12T19:21:22.463Z,13.46
2022-09-12T19:23:49.455Z,13.47
2022-09-12T19:26:17.550Z,13.37
2022-09-12T19:28:45.366Z,13.34
2022-09-12T19:31:14.962Z,13.28
2022-09-12T19:33:42.047Z,13.16
2022-09-12T19:36:33.693Z,13.12
2022-09-12T19:38:58.958Z,13.06
2022-09-12T19:41:25.789Z,13.05
2022-09-12T19:43:52.323Z,12.96
2022-09-12T19:46:20.979Z,12.91
2022-09-12T19:48:48.517Z,12.93
2022-09-12T19:51:16.688Z,12.78
2022-09-12T19:53:43.722Z,12.82
2022-09-12T19:56:13.974Z,12.74
2022-09-12T19:58:43.299Z,12.64
2022-09-12T20:01:17.430Z,12.62
2022-09-12T20:03:45.191Z,12.60
2022-09-12T20:06:14.762Z,12.60
2022-09-12T20:08:45.087Z,12.56
2022-09-12T20:11:14.111Z,12.42
2022-09-12T20:13:41.430Z,12.47
2022-09-12T20:16:20.354Z,12.32
2022-09-12T20:18:49.405Z,12.15
2022-09-12T20:21:21.824Z,12.24
2022-09-12T20:23:48.483Z,12.12
2022-09-12T20:26:14.997Z,12.10
2022-09-12T20:28:42.069Z,12.08
2022-09-12T20:31:12.701Z,11.96
2022-09-12T20:33:39.862Z,11.80
2022-09-12T20:36:09.545Z,11.90
2022-09-12T20:38:36.798Z,11.76
2022-09-12T20:41:06.492Z,11.73
2022-09-12T20:43:33.484Z,11.70
2022-09-12T20:46:00.234Z,11.68
2022-09-12T20:48:26.865Z,11.58
2022-09-12T20:50:53.467Z,11.56
2022-09-12T20:53:20.285Z,11.62
2022-09-12T20:55:51.545Z,11.53
2022-09-12T20:58:19.505Z,11.48
2022-09-12T21:00:46.994Z,11.41
2022-09-12T21:03:14.686Z,11.39
2022-09-12T21:05:45.459Z,11.37
2022-09-12T21:08:13.187Z,11.36
2022-09-12T21:10:45.866Z,11.28
2022-09-12T21:13:13.373Z,11.30
2022-09-12T21:15:41.162Z,11.20
2022-09-12T21:18:08.020Z,11.10
2022-09-12T21:20:35.030Z,10.97
2022-09-12T21:23:02.250Z,10.99
2022-09-12T21:25:30.004Z,11.01
2022-09-12T21:27:56.618Z,10.96
2022-09-12T21:30:23.153Z,11.05
2022-09-12T21:32:49.658Z,11.14
2022-09-12T21:35:16.268Z,11.06
2022-09-12T21:37:43.179Z,10.97
2022-09-12T21:40:11.037Z,10.90
2022-09-12T21:42:37.548Z,10.89
2022-09-12T21:45:05.114Z,10.79
2022-09-12T21:47:31.627Z,10.82
2022-09-12T21:49:58.475Z,10.83
2022-09-12T21:52:25.264Z,10.74
2022-09-12T21:54:51.850Z,10.58
2022-09-12T21:57:18.324Z,10.51
2022-09-12T21:59:44.894Z,10.41
2022-09-12T22:02:12.428Z,10.48
2022-09-12T22:04:40.088Z,10.54
2022-09-12T22:07:06.770Z,10.38
2022-09-12T22:09:34.430Z,10.31
2022-09-12T22:12:04.253Z,10.19
2022-09-12T22:14:30.832Z,10.21
2022-09-12T22:17:01.164Z,10.42
2022-09-12T22:19:27.731Z,10.31
2022-09-12T22:22:12.527Z,10.33
2022-09-12T22:24:39.124Z,10.22
2022-09-12T22:27:06.720Z,10.18
2022-09-12T22:29:34.353Z,10.11
2022-09-12T22:32:00.965Z,10.05
2022-09-12T22:34:28.447Z,9.94
2022-09-12T22:36:55.720Z,9.98
2022-09-12T22:39:22.711Z,9.96
2022-09-12T22:41:49.283Z,9.98
2022-09-12T22:44:17.777Z,9.99
2022-09-12T22:46:45.036Z,10.08
2022-09-12T22:49:11.652Z,9.90
2022-09-12T22:51:39.103Z,9.86
2022-09-12T22:54:06.318Z,9.75
2022-09-12T22:56:33.302Z,9.78
2022-09-12T22:58:59.811Z,9.87
2022-09-12T23:01:26.567Z,9.79
2022-09-12T23:03:53.270Z,9.71
2022-09-12T23:06:20.036Z,9.77
2022-09-12T23:08:46.724Z,9.70
2022-09-12T23:11:16.024Z,9.67
2022-09-12T23:13:45.282Z,9.52
2022-09-12T23:16:18.648Z,9.48
2022-09-12T23:18:45.869Z,9.51
2022-09-12T23:21:13.616Z,9.46
2022-09-12T23:23:40.840Z,9.45
2022-09-12T23:26:10.865Z,9.52
2022-09-12T23:28:39.159Z,9.48
2022-09-12T23:31:07.567Z,9.42
2022-09-12T23:33:34.148Z,9.35
2022-09-12T23:36:07.689Z,9.31
2022-09-12T23:38:36.314Z,9.28
2022-09-12T23:41:04.808Z,9.24
2022-09-12T23:43:31.748Z,9.23
2022-09-12T23:45:58.757Z,9.10
2022-09-12T23:48:25.272Z,9.10
2022-09-12T23:50:52.915Z,9.03
2022-09-12T23:53:21.488Z,8.99
2022-09-12T23:55:48.928Z,8.99
2022-09-12T23:58:16.055Z,8.89
